Bitte eine E-Mail-Adresse für das Benutzerkonto eingeben. Ein Bestätigungscode wird dann an diese verschickt. Sobald der Code vorliegt, kann ein neues Passwort für das Benutzerkonto festgelegt werden.

 

 

 
NEU! ab. 1.4.
Nortel Info 128,740 MHz

WebCam

  
Kamera Halle
Kamera Vorfeld
Wetter EDDS

METAR

EDDS 231350Z 35009KT 300V020 9999 FEW045 18/07 Q1024 NOSIG =


TAF

EDDS 231100Z 2312/2412 33008KT 9999 SCT035 BECMG 2318/2321 VRB03KT =


SR/SS

03:19 / 19:27 UTC
(EDSO 23-06-2018)